Time;durP1;ratioP1;P1;durP2;ratioP2;P2;SDS_P1;SDS_P2;PMS_P1;PMS_P2;Temp;Humidity;BMP_temperature;BMP_pressure;BME280_temperature;BME280_humidity;BME280_pressure;Samples;Min_cycle;Max_cycle;Signal;HPM_P1;HPM_P2
2023/06/30 00:01:21;;;;;;;4.75;4.35;;;;;;;16.10;96.73;64658.50;5090773;28;20341;-55
2023/06/30 00:03:46;;;;;;;5.72;4.70;;;;;;;16.20;97.36;64667.50;5091688;28;20303;-55
2023/06/30 00:06:12;;;;;;;4.05;3.75;;;;;;;16.30;96.05;64673.44;5091530;28;20268;-55
2023/06/30 00:08:38;;;;;;;4.35;3.95;;;;;;;16.08;94.24;64656.31;5091288;28;20207;-55
2023/06/30 00:11:03;;;;;;;4.20;3.80;;;;;;;16.20;96.29;64666.97;5091308;28;20688;-56
2023/06/30 00:13:28;;;;;;;4.70;4.30;;;;;;;16.24;94.75;64674.44;5091252;28;20216;-56
2023/06/30 00:15:55;;;;;;;4.40;4.00;;;;;;;16.30;96.70;64677.97;5091571;28;20200;-55
2023/06/30 00:18:21;;;;;;;5.03;4.25;;;;;;;16.34;95.57;64682.38;5091242;28;20208;-55
2023/06/30 00:20:46;;;;;;;5.47;4.05;;;;;;;16.34;95.06;64682.91;5091071;28;20196;-55
2023/06/30 00:23:14;;;;;;;5.78;4.10;;;;;;;16.23;93.59;64672.81;5090994;28;20542;-56
2023/06/30 00:25:40;;;;;;;4.18;3.88;;;;;;;16.18;93.86;64662.22;5091007;28;20359;-56
2023/06/30 00:28:05;;;;;;;4.30;3.90;;;;;;;16.13;96.10;64659.81;5090969;28;20199;-57
2023/06/30 00:30:31;;;;;;;4.60;4.20;;;;;;;16.12;94.41;64658.69;5091011;28;20605;-56
2023/06/30 00:32:56;;;;;;;4.47;4.07;;;;;;;16.04;94.82;64646.81;5090842;28;20207;-56
2023/06/30 00:35:22;;;;;;;3.67;3.38;;;;;;;15.98;95.69;64645.31;5090813;28;20196;-55
2023/06/30 00:37:47;;;;;;;5.07;3.97;;;;;;;15.87;95.96;64631.75;5090908;28;20175;-56
2023/06/30 00:40:14;;;;;;;4.40;4.00;;;;;;;16.09;95.49;64652.31;5091227;28;20309;-55
2023/06/30 00:42:39;;;;;;;4.47;4.07;;;;;;;16.07;96.26;64652.66;5090700;28;20204;-55
2023/06/30 00:45:06;;;;;;;6.57;4.25;;;;;;;16.03;96.33;64648.25;5090736;28;20214;-55
2023/06/30 00:47:32;;;;;;;5.88;4.47;;;;;;;15.88;96.93;64632.84;5090870;28;20210;-56
2023/06/30 00:49:58;;;;;;;5.07;3.97;;;;;;;15.77;97.97;64620.19;5090559;28;20291;-56
2023/06/30 00:52:24;;;;;;;4.75;3.97;;;;;;;15.77;98.48;64620.75;5090751;28;20270;-60
2023/06/30 00:54:50;;;;;;;5.55;4.40;;;;;;;15.80;98.12;64623.50;5090774;28;20265;-54
2023/06/30 00:57:16;;;;;;;5.45;4.15;;;;;;;15.79;98.96;64622.41;5090733;28;20200;-57
2023/06/30 00:59:41;;;;;;;5.03;4.45;;;;;;;15.89;97.42;64633.41;5090971;28;20680;-57
2023/06/30 01:02:24;;;;;;;5.13;4.20;;;;;;;15.88;96.98;64629.75;5090613;28;20646;-56
2023/06/30 01:05:25;;;;;;;5.35;4.65;;;;;;;16.04;96.80;64652.44;5090973;28;20285;-55
2023/06/30 01:08:05;;;;;;;4.68;4.28;;;;;;;16.16;95.60;64663.09;5090722;28;20206;-55
2023/06/30 01:10:32;;;;;;;5.00;4.55;;;;;;;15.91;95.21;64635.59;5090601;28;20222;-59
2023/06/30 01:13:00;;;;;;;6.47;4.10;;;;;;;15.82;97.16;64626.25;5092074;28;20711;-55
2023/06/30 01:15:27;;;;;;;4.82;4.13;;;;;;;15.82;97.85;64628.22;5094014;28;20204;-57
2023/06/30 01:17:56;;;;;;;4.93;4.28;;;;;;;15.85;98.33;64629.56;5093952;28;20196;-59
2023/06/30 01:20:23;;;;;;;4.60;4.20;;;;;;;16.04;97.61;64654.44;5093815;28;20212;-59
2023/06/30 01:22:56;;;;;;;7.68;4.97;;;;;;;16.06;98.19;64652.09;5094156;28;20226;-59
2023/06/30 01:25:26;;;;;;;6.43;4.60;;;;;;;16.19;96.31;64666.41;5093999;28;20204;-59
2023/06/30 01:27:53;;;;;;;5.22;4.57;;;;;;;16.07;95.93;64650.13;5093932;28;20199;-57
2023/06/30 01:30:19;;;;;;;5.32;4.43;;;;;;;15.80;99.24;64626.59;5093671;28;20212;-53
2023/06/30 01:32:46;;;;;;;5.20;4.70;;;;;;;15.67;99.70;64609.19;5093834;28;20207;-56
2023/06/30 01:35:11;;;;;;;5.47;4.68;;;;;;;15.66;100.00;64608.09;5093815;28;20612;-57
2023/06/30 01:37:44;;;;;;;5.97;4.60;;;;;;;15.71;99.27;64616.13;5093703;28;20200;-56
2023/06/30 01:40:10;;;;;;;4.78;4.10;;;;;;;15.72;99.82;64612.16;5093600;28;20216;-56
2023/06/30 01:42:37;;;;;;;5.68;4.55;;;;;;;15.80;98.45;64626.59;5075503;28;20253;-58
2023/06/30 01:45:04;;;;;;;5.35;4.85;;;;;;;15.80;98.81;64626.03;5093859;28;20208;-57
2023/06/30 01:47:29;;;;;;;4.47;3.90;;;;;;;15.79;99.94;64625.50;5093441;28;20248;-56
2023/06/30 01:49:56;;;;;;;6.68;4.60;;;;;;;15.86;99.83;64630.09;5093867;28;20629;-54
2023/06/30 01:52:21;;;;;;;6.63;4.40;;;;;;;16.09;98.35;64654.84;5093464;28;20250;-53
2023/06/30 01:54:47;;;;;;;4.50;4.10;;;;;;;16.05;97.61;64647.91;5093560;28;20698;-58
2023/06/30 01:57:12;;;;;;;5.47;4.40;;;;;;;15.95;98.64;64640.00;5093490;28;20700;-55
2023/06/30 01:59:38;;;;;;;4.72;4.10;;;;;;;15.80;97.50;64626.03;5093318;28;20220;-60
2023/06/30 02:02:03;;;;;;;4.78;4.32;;;;;;;15.46;98.15;64588.63;5075185;28;20268;-60
2023/06/30 02:04:29;;;;;;;5.82;4.78;;;;;;;15.49;100.00;64589.41;5093270;28;20569;-58
2023/06/30 02:06:55;;;;;;;5.65;4.60;;;;;;;15.48;98.05;64586.31;5093315;28;20199;-60
2023/06/30 02:09:20;;;;;;;5.00;4.50;;;;;;;15.36;97.71;64575.06;5075363;28;20219;-58
2023/06/30 02:11:46;;;;;;;5.70;4.53;;;;;;;15.21;99.03;64558.59;5074978;28;20223;-55
2023/06/30 02:14:11;;;;;;;5.32;4.70;;;;;;;15.10;99.48;64547.59;5093372;28;20259;-55
2023/06/30 02:16:37;;;;;;;5.22;4.72;;;;;;;14.93;100.00;64528.88;5092996;28;20192;-55
2023/06/30 02:19:02;;;;;;;4.70;4.30;;;;;;;15.10;100.00;64550.13;5092961;28;20685;-55
2023/06/30 02:21:27;;;;;;;4.53;4.13;;;;;;;15.06;100.00;64545.19;5093137;28;20207;-60
2023/06/30 02:23:53;;;;;;;4.45;4.05;;;;;;;14.70;100.00;64506.16;5092213;28;20299;-60
2023/06/30 02:26:18;;;;;;;4.28;3.78;;;;;;;14.65;100.00;64497.56;5091765;28;20265;-54
2023/06/30 02:28:44;;;;;;;6.25;4.70;;;;;;;14.52;100.00;64483.84;5093122;28;20550;-54
2023/06/30 02:31:09;;;;;;;5.55;4.85;;;;;;;14.50;100.00;64481.66;5074784;28;20341;-58
2023/06/30 02:33:35;;;;;;;4.90;4.40;;;;;;;14.40;100.00;64468.13;5092868;28;20215;-55
2023/06/30 02:36:02;;;;;;;5.82;4.47;;;;;;;14.48;100.00;64478.91;5092914;28;20192;-58
2023/06/30 02:38:28;;;;;;;5.03;4.25;;;;;;;14.40;100.00;64473.19;5092849;28;20628;-55
2023/06/30 02:40:53;;;;;;;7.63;4.20;;;;;;;14.52;100.00;64486.38;5092888;28;20227;-55
2023/06/30 02:43:19;;;;;;;5.03;4.15;;;;;;;14.65;100.00;64500.09;5092899;28;20627;-56
2023/06/30 02:45:44;;;;;;;4.90;4.50;;;;;;;14.72;100.00;64505.25;5092640;28;20192;-55
2023/06/30 02:48:10;;;;;;;5.20;4.78;;;;;;;14.69;100.00;64507.59;5092337;28;20227;-59
2023/06/30 02:50:35;;;;;;;6.25;4.45;;;;;;;14.71;100.00;64507.25;5092714;28;20665;-54
2023/06/30 02:53:01;;;;;;;4.85;4.45;;;;;;;14.82;100.00;64516.81;5092469;28;20669;-56
2023/06/30 02:55:27;;;;;;;9.35;4.85;;;;;;;14.96;100.00;64534.75;5092475;28;20200;-57
2023/06/30 02:57:53;;;;;;;6.05;4.75;;;;;;;14.88;100.00;64523.41;5092608;28;20206;-60
2023/06/30 03:00:19;;;;;;;4.65;4.20;;;;;;;14.86;100.00;64521.22;5092546;28;20215;-56
2023/06/30 03:02:45;;;;;;;7.13;4.57;;;;;;;14.93;100.00;64528.34;5092351;28;20776;-56
2023/06/30 03:05:10;;;;;;;10.07;4.72;;;;;;;14.93;100.00;64530.88;5092350;28;20299;-54
2023/06/30 03:07:35;;;;;;;5.28;4.25;;;;;;;14.88;100.00;64525.38;5092286;28;20192;-59
2023/06/30 03:10:02;;;;;;;5.25;4.35;;;;;;;14.80;100.00;64514.63;5092327;28;20289;-55
2023/06/30 03:12:27;;;;;;;9.15;4.38;;;;;;;14.83;100.00;64519.88;5092173;28;20216;-59
2023/06/30 03:14:53;;;;;;;6.82;4.35;;;;;;;14.78;100.00;64514.94;5074259;28;20231;-57
2023/06/30 03:17:19;;;;;;;5.15;4.65;;;;;;;14.78;100.00;64512.41;5092213;28;20203;-55
2023/06/30 03:19:44;;;;;;;7.18;5.10;;;;;;;14.88;100.00;64525.94;5092339;28;20204;-60
2023/06/30 03:24:56;;;;;;;7.65;4.90;;;;;;;15.06;100.00;64542.63;5092254;28;20219;-54
2023/06/30 03:27:21;;;;;;;6.30;4.13;;;;;;;15.17;100.00;64554.72;5073896;28;20310;-59
2023/06/30 03:29:47;;;;;;;5.03;4.22;;;;;;;15.32;99.76;64570.66;5092148;28;20294;-56
2023/06/30 03:32:12;;;;;;;4.10;3.70;;;;;;;15.23;100.00;64561.31;5091859;28;20242;-54
2023/06/30 03:34:38;;;;;;;6.78;5.00;;;;;;;15.43;100.00;64585.88;5091844;28;20390;-59
2023/06/30 03:37:04;;;;;;;5.53;4.80;;;;;;;15.52;100.00;64592.69;5090701;28;20279;-54
2023/06/30 03:39:29;;;;;;;7.28;4.65;;;;;;;15.70;99.27;64610.50;5073699;28;20681;-60
2023/06/30 03:41:55;;;;;;;4.40;4.00;;;;;;;15.42;96.16;64584.22;5091736;28;20698;-55
2023/06/30 03:44:21;;;;;;;4.57;3.70;;;;;;;15.34;97.38;64572.88;5091813;28;20346;-55
2023/06/30 03:46:46;;;;;;;8.07;4.40;;;;;;;15.24;99.03;64561.88;5091749;28;20317;-60
2023/06/30 03:49:12;;;;;;;4.60;4.05;;;;;;;15.29;99.99;64567.91;5091612;28;20721;-54
2023/06/30 03:51:37;;;;;;;4.47;3.83;;;;;;;15.44;99.53;64586.44;5091634;28;20295;-56
2023/06/30 03:54:03;;;;;;;6.40;4.38;;;;;;;15.58;98.64;64599.28;5091738;28;20208;-59
2023/06/30 03:56:28;;;;;;;4.38;3.97;;;;;;;15.22;97.66;64559.69;5091537;28;20207;-61
2023/06/30 03:58:53;;;;;;;6.60;4.38;;;;;;;15.14;98.96;64552.00;5091813;28;20208;-59
2023/06/30 04:01:19;;;;;;;4.18;3.83;;;;;;;15.04;99.32;64541.00;5091490;28;20196;-54
2023/06/30 04:03:44;;;;;;;5.40;4.50;;;;;;;14.91;100.00;64526.69;5091674;28;20681;-55
2023/06/30 04:06:10;;;;;;;7.10;4.70;;;;;;;14.53;100.00;64484.38;5091288;28;20199;-55
2023/06/30 04:08:35;;;;;;;5.07;4.32;;;;;;;14.53;100.00;64484.94;5091398;28;20207;-54
2023/06/30 04:11:01;;;;;;;4.75;4.35;;;;;;;14.59;100.00;64491.53;5091301;28;20212;-59
2023/06/30 04:13:26;;;;;;;6.93;5.47;;;;;;;14.55;100.00;64487.13;5091271;28;20666;-61
2023/06/30 04:15:52;;;;;;;6.15;4.70;;;;;;;14.51;100.00;64485.28;5091103;28;20622;-59
2023/06/30 04:18:17;;;;;;;4.95;4.43;;;;;;;14.43;100.00;64476.47;5091153;28;20196;-53
2023/06/30 04:20:44;;;;;;;5.55;4.53;;;;;;;14.54;100.00;64488.56;5091213;28;20243;-57
2023/06/30 04:23:09;;;;;;;5.90;4.82;;;;;;;14.83;100.00;64519.88;5091290;28;20283;-57
2023/06/30 04:25:35;;;;;;;6.45;5.18;;;;;;;14.81;100.00;64518.25;5091201;28;20239;-57
2023/06/30 04:28:01;;;;;;;8.57;5.32;;;;;;;14.84;100.00;64519.00;5091099;28;20200;-55
2023/06/30 04:30:26;;;;;;;5.35;4.85;;;;;;;14.83;100.00;64517.34;5091008;28;20200;-56
2023/06/30 04:32:51;;;;;;;6.32;4.80;;;;;;;14.94;100.00;64530.00;5090777;28;20192;-55
2023/06/30 04:35:17;;;;;;;5.95;5.10;;;;;;;15.12;100.00;64551.78;5091042;28;20207;-57
2023/06/30 04:37:42;;;;;;;6.78;5.78;;;;;;;15.05;100.00;64542.09;5090866;28;20203;-54
2023/06/30 04:40:08;;;;;;;7.93;5.18;;;;;;;15.22;100.00;64559.69;5090968;28;20212;-55
2023/06/30 04:42:35;;;;;;;6.95;5.57;;;;;;;15.24;100.00;64564.41;5090844;28;20196;-55
2023/06/30 04:45:01;;;;;;;6.72;4.95;;;;;;;15.29;100.00;64569.91;5076483;22;20784;-56
2023/06/30 04:47:27;;;;;;;8.25;5.72;;;;;;;15.39;100.00;64578.38;5071593;28;20796;-55
2023/06/30 04:49:53;;;;;;;6.20;4.80;;;;;;;15.36;100.00;64575.63;5074147;28;20281;-59
2023/06/30 04:52:19;;;;;;;7.53;5.30;;;;;;;15.43;100.00;64585.34;5074139;28;20598;-59
2023/06/30 04:54:44;;;;;;;6.07;4.80;;;;;;;15.51;100.00;64591.59;5074378;28;20296;-57
2023/06/30 04:57:10;;;;;;;6.30;5.07;;;;;;;15.48;100.00;64588.28;5074184;28;20207;-53
2023/06/30 04:59:35;;;;;;;6.40;5.13;;;;;;;15.57;100.00;64601.28;5074248;28;20212;-55
2023/06/30 05:02:00;;;;;;;6.40;5.05;;;;;;;15.40;100.00;64577.50;5074153;28;20695;-56
2023/06/30 05:04:26;;;;;;;6.63;4.53;;;;;;;15.43;100.00;64582.81;5074142;28;20595;-57
2023/06/30 05:06:52;;;;;;;5.47;4.97;;;;;;;15.83;100.00;64626.81;5072685;28;20208;-56
2023/06/30 05:09:18;;;;;;;6.90;4.82;;;;;;;16.09;100.00;64654.84;5074054;28;20644;-56
2023/06/30 05:11:43;;;;;;;23.45;14.15;;;;;;;16.36;100.00;64687.66;5073935;28;20697;-56
2023/06/30 05:14:09;;;;;;;22.48;10.98;;;;;;;16.69;100.00;64721.47;5074228;28;20705;-55
2023/06/30 05:16:35;;;;;;;16.90;11.43;;;;;;;17.22;100.00;64779.31;5074273;28;20284;-55
2023/06/30 05:19:00;;;;;;;7.18;6.13;;;;;;;17.79;100.00;64841.59;5074079;28;20209;-55
2023/06/30 05:21:26;;;;;;;9.18;6.47;;;;;;;17.92;100.00;64858.47;5072533;28;20201;-57
2023/06/30 05:23:51;;;;;;;6.07;5.38;;;;;;;18.43;100.00;64911.63;5073768;28;20656;-57
2023/06/30 05:26:16;;;;;;;7.25;5.13;;;;;;;18.73;100.00;64944.72;5089242;28;20708;-57
2023/06/30 05:28:42;;;;;;;5.38;4.45;;;;;;;18.81;100.00;64953.56;5073931;28;20258;-56
2023/06/30 05:31:07;;;;;;;5.70;5.07;;;;;;;18.94;100.00;64967.34;5073709;28;20224;-58
2023/06/30 05:33:33;;;;;;;7.78;4.70;;;;;;;19.06;100.00;64975.47;5073465;28;20212;-57
2023/06/30 05:35:58;;;;;;;7.50;5.40;;;;;;;19.03;100.00;64975.28;5073780;28;20236;-58
2023/06/30 05:38:23;;;;;;;9.98;5.63;;;;;;;18.74;96.43;64942.72;5071348;28;20261;-56
2023/06/30 05:40:49;;;;;;;8.57;6.10;;;;;;;19.04;93.98;64975.84;5072119;28;20193;-54
2023/06/30 05:43:14;;;;;;;7.68;6.35;;;;;;;18.50;89.75;64916.25;5072412;28;20588;-56
2023/06/30 05:45:40;;;;;;;6.95;6.25;;;;;;;18.22;92.85;64889.00;5073410;28;20208;-55
2023/06/30 05:48:05;;;;;;;6.13;5.57;;;;;;;18.25;90.98;64889.75;5073168;28;20265;-55
2023/06/30 05:50:30;;;;;;;9.05;5.78;;;;;;;17.97;93.21;64858.34;5073252;28;20253;-55
2023/06/30 05:52:56;;;;;;;8.90;6.43;;;;;;;18.17;100.00;64880.38;5073223;28;20211;-55
2023/06/30 05:55:21;;;;;;;13.50;6.70;;;;;;;18.30;100.00;64897.28;5073464;28;20230;-62
2023/06/30 05:57:47;;;;;;;7.15;6.00;;;;;;;18.37;99.10;64905.00;5073057;28;20197;-56
2023/06/30 06:00:14;;;;;;;7.38;6.68;;;;;;;18.45;97.20;64911.28;5072425;28;20224;-59
2023/06/30 06:02:40;;;;;;;12.50;7.07;;;;;;;18.66;96.18;64937.00;5073349;28;20200;-56
2023/06/30 06:05:05;;;;;;;8.15;6.50;;;;;;;18.80;95.87;64947.34;5088643;28;20212;-57
2023/06/30 06:07:31;;;;;;;8.10;6.40;;;;;;;18.79;94.95;64948.22;5073104;28;20196;-57
2023/06/30 06:09:56;;;;;;;11.50;6.18;;;;;;;19.14;97.48;64989.41;5073121;28;20248;-56
2023/06/30 06:12:22;;;;;;;11.88;7.45;;;;;;;19.01;96.36;64973.06;5072991;28;20212;-61
2023/06/30 06:14:47;;;;;;;12.48;7.18;;;;;;;19.11;95.74;64988.66;5072816;28;20238;-54
2023/06/30 06:17:13;;;;;;;11.52;7.50;;;;;;;19.15;93.47;64987.97;5072831;28;20209;-55
2023/06/30 06:19:38;;;;;;;11.50;7.38;;;;;;;18.66;95.41;64931.91;5072866;28;20592;-56
2023/06/30 06:22:04;;;;;;;6.82;6.13;;;;;;;19.40;99.56;65015.03;5072723;28;20663;-56
2023/06/30 06:24:29;;;;;;;11.27;7.95;;;;;;;18.92;90.86;64965.16;5073002;28;20219;-57
2023/06/30 06:26:55;;;;;;;12.52;8.35;;;;;;;19.16;91.68;64989.06;5072871;28;20283;-59
2023/06/30 06:29:22;;;;;;;7.30;6.55;;;;;;;19.20;94.17;64996.03;5072791;28;20220;-60
2023/06/30 06:31:51;;;;;;;8.90;6.45;;;;;;;19.54;96.46;65033.03;5072849;28;20247;-57
2023/06/30 06:34:18;;;;;;;7.22;5.60;;;;;;;20.05;95.16;65086.81;5072809;28;20286;-55
2023/06/30 06:36:44;;;;;;;6.63;5.35;;;;;;;20.35;95.73;65117.41;5072242;28;20209;-55
2023/06/30 06:39:10;;;;;;;10.80;6.78;;;;;;;20.58;86.34;65145.38;5072568;28;20205;-57
2023/06/30 06:41:36;;;;;;;9.57;7.57;;;;;;;20.48;86.21;65134.34;5072629;28;20241;-56
2023/06/30 06:44:01;;;;;;;15.55;8.35;;;;;;;20.47;83.34;65132.69;5072520;28;20233;-57
2023/06/30 06:46:27;;;;;;;9.57;8.00;;;;;;;19.89;85.89;65071.69;5072506;28;20266;-60
2023/06/30 06:48:54;;;;;;;12.35;9.05;;;;;;;19.68;84.38;65046.50;5072538;28;20678;-56
2023/06/30 06:51:20;;;;;;;11.75;8.32;;;;;;;19.52;85.56;65030.84;5072175;28;20224;-56
2023/06/30 06:53:45;;;;;;;6.70;6.10;;;;;;;19.33;93.51;65010.44;5072599;28;20209;-60
2023/06/30 06:56:11;;;;;;;10.18;7.40;;;;;;;19.47;90.73;65022.78;5072323;28;20205;-61
2023/06/30 06:58:38;;;;;;;11.05;9.60;;;;;;;19.57;88.77;65034.38;5072420;28;20338;-55
2023/06/30 07:01:03;;;;;;;11.07;8.27;;;;;;;19.78;88.84;65059.53;5087675;28;20216;-56
2023/06/30 07:03:28;;;;;;;8.18;7.20;;;;;;;19.74;89.74;65055.69;5072230;28;20208;-56
2023/06/30 07:05:56;;;;;;;10.77;8.45;;;;;;;19.81;88.87;65062.88;5071995;28;20203;-56
2023/06/30 07:08:21;;;;;;;9.95;8.18;;;;;;;20.02;85.74;65084.06;5072031;28;20646;-56
2023/06/30 07:10:48;;;;;;;10.40;8.00;;;;;;;19.79;86.18;65060.66;5071675;28;20213;-56
2023/06/30 07:13:21;;;;;;;11.82;8.20;;;;;;;19.63;85.47;65041.00;5071613;28;20228;-55
2023/06/30 07:15:50;;;;;;;8.75;7.45;;;;;;;19.43;87.75;65018.91;5071888;28;20766;-55
2023/06/30 07:18:19;;;;;;;10.02;6.85;;;;;;;19.66;91.71;65044.28;5071978;28;20220;-56
2023/06/30 07:20:46;;;;;;;10.55;7.63;;;;;;;19.87;89.58;65067.50;5071906;28;20251;-60
2023/06/30 07:23:11;;;;;;;10.68;8.02;;;;;;;20.17;88.29;65100.06;5071761;28;20204;-56
2023/06/30 07:25:37;;;;;;;10.15;7.70;;;;;;;20.53;85.33;65139.31;5070668;28;20180;-60
2023/06/30 07:28:03;;;;;;;8.52;6.93;;;;;;;20.56;85.28;65145.19;5071583;28;20211;-61
2023/06/30 07:30:28;;;;;;;9.75;6.60;;;;;;;20.71;86.35;65159.22;5071772;28;20197;-60
2023/06/30 07:32:54;;;;;;;8.57;6.47;;;;;;;21.02;85.23;65196.06;5071737;28;20675;-60
2023/06/30 07:43:05;;;;;;;8.75;6.53;;;;;;;20.97;81.23;65190.50;5691158;22;20226;-60
2023/06/30 07:45:31;;;;;;;10.32;7.28;;;;;;;20.76;83.45;65164.75;4994075;28;20337;-58
2023/06/30 07:47:56;;;;;;;9.35;7.10;;;;;;;20.80;82.72;65166.59;5011633;28;20210;-62
2023/06/30 07:50:21;;;;;;;8.15;6.05;;;;;;;20.84;85.99;65176.16;5011856;28;20207;-57
2023/06/30 07:52:48;;;;;;;10.93;7.00;;;;;;;20.88;78.67;65178.56;5011964;28;20210;-58
2023/06/30 07:55:16;;;;;;;6.07;5.47;;;;;;;20.99;79.26;65190.16;5011812;28;20289;-57
2023/06/30 07:57:42;;;;;;;8.63;6.22;;;;;;;21.11;77.39;65203.44;4994012;28;20215;-59
2023/06/30 08:00:10;;;;;;;8.40;6.13;;;;;;;21.20;81.61;65213.41;5011293;28;20225;-59
2023/06/30 08:02:36;;;;;;;12.40;6.50;;;;;;;21.27;83.89;65220.59;5011653;28;20222;-60
2023/06/30 08:05:02;;;;;;;9.25;6.28;;;;;;;21.39;82.08;65234.41;5011461;28;20198;-60
2023/06/30 08:07:28;;;;;;;8.55;5.05;;;;;;;21.59;81.49;65253.44;5011710;28;20643;-58
2023/06/30 08:09:53;;;;;;;7.72;4.90;;;;;;;21.77;79.66;65275.34;4994000;28;20259;-59
2023/06/30 08:12:18;;;;;;;7.05;5.53;;;;;;;21.83;76.94;65285.13;5011474;28;20562;-59
2023/06/30 08:14:44;;;;;;;8.45;5.50;;;;;;;21.90;74.77;65290.31;5011367;28;20198;-57
2023/06/30 08:17:09;;;;;;;7.40;4.95;;;;;;;21.88;71.53;65284.97;5011275;28;20218;-59
2023/06/30 08:19:37;;;;;;;8.95;5.78;;;;;;;21.78;70.93;65277.00;5011421;28;20285;-58
2023/06/30 08:22:03;;;;;;;6.85;4.05;;;;;;;21.85;74.53;65282.22;5010687;28;20199;-59
2023/06/30 08:24:28;;;;;;;7.35;4.15;;;;;;;21.95;74.84;65295.84;5011301;28;20294;-58
2023/06/30 08:26:54;;;;;;;6.95;4.32;;;;;;;21.98;70.80;65298.63;5011241;28;20225;-59
2023/06/30 08:29:19;;;;;;;7.38;4.45;;;;;;;22.25;71.80;65328.47;5010883;28;20683;-58
2023/06/30 08:31:45;;;;;;;3.78;3.22;;;;;;;22.11;69.76;65315.56;5011067;28;20214;-58
2023/06/30 08:34:10;;;;;;;5.68;3.85;;;;;;;22.07;77.93;65306.00;5010844;28;20211;-58
2023/06/30 08:36:35;;;;;;;5.10;4.00;;;;;;;22.14;71.17;65319.44;5011197;28;20201;-58
2023/06/30 08:39:01;;;;;;;4.20;3.33;;;;;;;22.14;64.35;65316.31;5011409;28;20218;-57
2023/06/30 08:41:28;;;;;;;5.18;2.80;;;;;;;21.82;65.59;65280.88;5011299;28;20274;-58
2023/06/30 08:43:56;;;;;;;4.18;3.42;;;;;;;21.87;63.22;65287.00;5011166;28;20225;-62
2023/06/30 08:46:24;;;;;;;4.50;3.45;;;;;;;22.03;69.04;65304.13;5011022;28;20199;-58
2023/06/30 08:48:51;;;;;;;4.15;3.38;;;;;;;22.25;68.40;65328.47;5011009;28;20215;-59
2023/06/30 08:51:18;;;;;;;5.20;2.40;;;;;;;22.46;65.77;65351.75;5010783;28;20215;-60
2023/06/30 08:53:46;;;;;;;4.38;3.20;;;;;;;22.60;64.22;65367.25;5010617;28;20211;-59
2023/06/30 08:56:14;;;;;;;3.90;3.40;;;;;;;22.29;63.70;65332.91;4992970;28;20319;-59
2023/06/30 08:58:39;;;;;;;6.80;3.33;;;;;;;22.23;62.25;65326.28;5011025;28;20215;-59
2023/06/30 09:01:05;;;;;;;5.63;3.97;;;;;;;22.25;64.67;65328.47;5010774;28;20202;-60
2023/06/30 09:03:31;;;;;;;3.30;3.00;;;;;;;22.54;64.67;65360.59;5010695;28;20220;-60
2023/06/30 09:05:59;;;;;;;5.80;3.13;;;;;;;22.66;59.74;65371.34;5010828;28;20171;-56
2023/06/30 09:08:49;;;;;;;3.88;2.80;;;;;;;22.50;62.26;65356.16;5010561;28;20773;-59
2023/06/30 09:11:16;;;;;;;4.13;3.03;;;;;;;22.60;62.73;65364.13;4992830;28;20326;-58
2023/06/30 09:13:42;;;;;;;4.43;2.78;;;;;;;22.80;66.78;65389.41;5010469;28;20215;-59
2023/06/30 09:16:12;;;;;;;3.42;2.58;;;;;;;23.00;68.11;65411.56;5010862;28;20191;-60
2023/06/30 09:18:37;;;;;;;4.60;3.03;;;;;;;23.14;63.76;65427.06;5010364;28;20222;-60
2023/06/30 09:21:06;;;;;;;3.22;2.80;;;;;;;23.31;65.86;65445.91;5010595;28;20190;-59
2023/06/30 09:23:34;;;;;;;4.43;3.00;;;;;;;23.41;61.56;65455.88;5010613;28;20310;-59
2023/06/30 09:26:00;;;;;;;3.33;3.03;;;;;;;23.56;58.96;65470.47;5010163;28;20222;-58
2023/06/30 09:28:25;;;;;;;6.70;2.75;;;;;;;23.56;58.32;65472.50;5010507;28;20770;-60
2023/06/30 09:30:51;;;;;;;5.13;3.30;;;;;;;23.56;56.85;65472.50;5010512;28;20214;-59
2023/06/30 09:33:17;;;;;;;3.53;2.60;;;;;;;23.59;59.79;65475.84;5011155;28;20594;-60
2023/06/30 09:35:45;;;;;;;4.35;2.90;;;;;;;23.74;56.19;65492.44;5013621;28;20253;-58
2023/06/30 09:38:16;;;;;;;4.55;2.83;;;;;;;23.33;55.77;65447.59;5020834;23;20226;-61
2023/06/30 09:40:43;;;;;;;3.58;3.17;;;;;;;23.42;58.65;65456.97;4995749;28;20207;-61
2023/06/30 09:43:16;;;;;;;5.10;3.10;;;;;;;23.36;58.94;65450.91;5013499;28;20211;-62
2023/06/30 09:45:44;;;;;;;3.40;3.10;;;;;;;23.48;61.60;65464.19;5013677;28;20711;-58
2023/06/30 09:48:10;;;;;;;5.45;3.58;;;;;;;23.71;54.79;65489.69;5013633;28;20235;-57
2023/06/30 09:50:36;;;;;;;3.47;3.17;;;;;;;23.57;56.58;65476.19;5013343;28;20209;-57
2023/06/30 09:53:01;;;;;;;5.38;3.75;;;;;;;23.28;61.61;65440.00;5013485;28;20293;-60
2023/06/30 09:55:27;;;;;;;4.22;3.83;;;;;;;23.73;57.17;65489.34;5013454;28;20281;-64
2023/06/30 09:57:55;;;;;;;5.75;3.95;;;;;;;23.85;54.01;65502.06;5013587;28;20207;-61
2023/06/30 10:00:23;;;;;;;4.53;3.95;;;;;;;23.80;58.60;65499.66;5013325;28;20299;-61
2023/06/30 10:03:02;;;;;;;4.80;3.83;;;;;;;23.82;55.61;65501.88;5013509;28;20199;-57
2023/06/30 10:05:28;;;;;;;4.95;4.05;;;;;;;23.98;54.11;65519.59;5013207;28;20293;-57
2023/06/30 10:07:54;;;;;;;6.97;3.80;;;;;;;24.27;56.52;65551.22;5013046;28;20297;-57
2023/06/30 10:10:19;;;;;;;4.43;4.00;;;;;;;24.46;61.94;65574.31;5013374;28;20230;-59
2023/06/30 10:12:49;;;;;;;5.10;3.72;;;;;;;24.71;58.16;65596.88;5013194;28;20919;-58
2023/06/30 10:15:14;;;;;;;6.30;3.67;;;;;;;24.77;56.26;65606.16;5013207;28;20595;-60
2023/06/30 10:17:43;;;;;;;3.55;3.13;;;;;;;24.50;56.98;65576.75;5013072;28;20211;-59
2023/06/30 10:20:09;;;;;;;8.65;3.90;;;;;;;24.51;53.15;65575.25;5029234;28;20221;-61
2023/06/30 10:22:35;;;;;;;4.60;4.13;;;;;;;24.77;52.49;65606.16;5030779;28;20202;-62
2023/06/30 10:25:02;;;;;;;5.93;3.38;;;;;;;24.95;53.80;65626.66;5031936;28;20261;-62
2023/06/30 10:27:28;;;;;;;3.40;3.10;;;;;;;25.13;52.37;65645.53;5032884;28;20213;-58
2023/06/30 10:30:01;;;;;;;3.88;3.40;;;;;;;25.46;54.74;65685.31;5032800;28;20291;-58
2023/06/30 10:32:27;;;;;;;3.42;3.13;;;;;;;25.68;53.95;65704.03;5032565;28;20233;-64
2023/06/30 10:34:53;;;;;;;4.13;3.67;;;;;;;25.78;54.51;65715.13;5032604;28;20499;-62
2023/06/30 10:37:20;;;;;;;8.00;3.60;;;;;;;25.40;54.14;65678.09;5032739;28;20209;-64
2023/06/30 10:39:46;;;;;;;5.47;3.97;;;;;;;25.50;52.39;65686.63;5014813;28;20672;-63
2023/06/30 10:42:13;;;;;;;4.15;3.30;;;;;;;25.67;51.00;65702.91;5032671;28;20221;-58
2023/06/30 10:44:43;;;;;;;4.05;3.58;;;;;;;25.89;54.58;65727.34;5032119;28;20229;-58
2023/06/30 10:47:09;;;;;;;4.20;3.60;;;;;;;26.22;54.90;65764.00;5032436;28;20637;-63
2023/06/30 10:49:36;;;;;;;5.53;4.20;;;;;;;26.32;49.69;65777.69;5032661;28;20642;-63
2023/06/30 10:52:08;;;;;;;5.00;3.95;;;;;;;26.40;50.66;65783.47;5032275;28;20242;-62
2023/06/30 10:54:46;;;;;;;5.70;3.30;;;;;;;26.41;50.60;65784.56;5014578;28;20658;-62
2023/06/30 10:57:24;;;;;;;5.78;4.13;;;;;;;25.80;48.76;65719.94;5032615;28;20206;-62
2023/06/30 11:00:11;;;;;;;6.25;3.67;;;;;;;26.19;50.13;65763.25;5032291;28;20221;-62
2023/06/30 11:02:56;;;;;;;8.50;4.90;;;;;;;26.47;49.29;65791.78;5032090;28;20700;-62
2023/06/30 11:05:30;;;;;;;7.82;5.22;;;;;;;26.91;50.93;65842.16;5032184;28;20217;-58
2023/06/30 11:08:03;;;;;;;5.65;5.07;;;;;;;27.29;52.43;65881.84;5031793;28;20304;-58
2023/06/30 11:10:45;;;;;;;5.75;4.43;;;;;;;26.93;46.40;65841.78;5014384;28;20695;-58
2023/06/30 11:13:11;;;;;;;4.40;4.00;;;;;;;27.10;45.91;65861.25;5014248;28;20223;-58
2023/06/30 11:15:55;;;;;;;4.80;3.90;;;;;;;26.82;45.42;65830.13;5014222;28;20256;-60
2023/06/30 11:18:22;;;;;;;4.55;3.95;;;;;;;26.86;48.39;65834.03;5032253;28;20214;-58
2023/06/30 11:21:01;;;;;;;6.53;3.90;;;;;;;26.63;49.73;65812.16;5031928;28;20198;-59
2023/06/30 11:23:28;;;;;;;5.10;3.80;;;;;;;26.94;47.27;65846.06;5032269;28;20216;-58
2023/06/30 11:25:58;;;;;;;4.90;3.17;;;;;;;26.92;48.67;65841.25;5031684;28;20206;-58
2023/06/30 11:28:28;;;;;;;4.30;3.70;;;;;;;27.56;47.75;65911.84;5014151;28;20310;-59
2023/06/30 11:30:54;;;;;;;6.75;3.40;;;;;;;27.89;49.00;65948.00;5014078;28;20214;-61
2023/06/30 11:33:20;;;;;;;4.68;3.97;;;;;;;28.12;48.91;65974.16;5031888;28;20288;-61
2023/06/30 11:35:53;;;;;;;5.35;3.80;;;;;;;28.22;49.57;65982.13;5013725;28;20209;-61
2023/06/30 11:38:19;;;;;;;4.00;3.67;;;;;;;28.40;48.41;66004.22;5031464;28;20276;-58